Time;durP1;ratioP1;P1;durP2;ratioP2;P2;SDS_P1;SDS_P2;PMS_P1;PMS_P2;Temp;Humidity;BMP_temperature;BMP_pressure;BME280_temperature;BME280_humidity;BME280_pressure;Samples;Min_cycle;Max_cycle;Signal;HPM_P1;HPM_P2
2023/03/31 05:34:12;;;;;;;;;2.00;1.00;;;;;18.48;46.26;99727.09;5049051;27;45966;-76
2023/03/31 05:36:37;;;;;;;;;1.50;0.00;;;;;19.04;46.96;99715.06;5045707;28;45464;-77
2023/03/31 05:39:06;;;;;;;;;1.00;1.00;;;;;19.86;47.31;99724.28;5047679;28;45370;-77
2023/03/31 05:41:32;;;;;;;;;1.33;1.33;;;;;20.75;47.37;99722.63;5046374;28;45615;-80
2023/03/31 05:43:57;;;;;;;;;0.00;0.00;;;;;21.58;46.63;99717.63;5052324;27;46285;-79
2023/03/31 05:46:23;;;;;;;;;2.00;0.67;;;;;22.34;46.20;99721.38;5046901;28;45571;-75
2023/03/31 05:48:49;;;;;;;;;0.67;0.67;;;;;22.97;45.74;99711.22;5053031;28;45444;-77
2023/03/31 05:51:14;;;;;;;;;0.67;0.67;;;;;23.49;45.09;99705.75;5036112;27;45885;-77
2023/03/31 05:53:40;;;;;;;;;1.00;1.00;;;;;23.96;44.92;99698.03;5046492;27;45982;-76
2023/03/31 05:56:07;;;;;;;;;1.00;1.00;;;;;24.39;43.93;99697.09;5041954;27;45483;-76
2023/03/31 05:58:34;;;;;;;;;2.00;0.00;;;;;24.77;44.13;99697.69;5033312;28;45388;-76
2023/03/31 06:01:07;;;;;;;;;0.00;0.00;;;;;25.10;43.44;99700.56;5036446;28;45553;-76
2023/03/31 06:03:33;;;;;;;;;1.67;1.00;;;;;25.37;43.39;99700.63;5037011;27;46473;-76
2023/03/31 06:05:59;;;;;;;;;2.67;0.00;;;;;25.63;42.82;99704.44;5046521;27;45401;-78
2023/03/31 06:08:24;;;;;;;;;2.00;1.00;;;;;25.85;42.54;99714.28;5039617;28;45911;-76
2023/03/31 06:10:50;;;;;;;;;1.00;1.00;;;;;26.05;42.02;99712.41;5048062;28;45305;-76
2023/03/31 06:13:15;;;;;;;;;0.33;0.33;;;;;26.24;41.91;99719.91;5046355;28;45459;-76
2023/03/31 06:15:41;;;;;;;;;1.00;1.00;;;;;26.39;41.52;99708.81;5048942;28;45811;-76
2023/03/31 06:18:09;;;;;;;;;4.00;2.00;;;;;26.51;41.04;99701.66;5045198;28;45500;-76
2023/03/31 06:20:35;;;;;;;;;1.33;1.00;;;;;26.60;41.21;99709.59;5031180;27;45541;-76
2023/03/31 06:23:00;;;;;;;;;2.33;2.00;;;;;26.66;40.19;99695.97;5045731;28;47150;-76
2023/03/31 06:25:25;;;;;;;;;6.67;5.00;;;;;26.73;40.02;99697.81;5045619;28;45371;-75
2023/03/31 06:27:51;;;;;;;;;4.00;2.00;;;;;26.78;40.47;99703.47;5046009;28;45395;-76
2023/03/31 06:30:16;;;;;;;;;2.33;2.00;;;;;26.83;39.93;99709.94;5046319;28;45564;-76
2023/03/31 06:32:41;;;;;;;;;2.00;2.00;;;;;26.89;40.04;99710.94;5044422;27;46091;-76
2023/03/31 06:35:07;;;;;;;;;1.00;1.00;;;;;26.96;39.71;99702.78;5027418;28;45369;-76
2023/03/31 06:37:32;;;;;;;;;1.00;1.00;;;;;27.01;39.03;99693.97;5046361;28;45421;-76
2023/03/31 06:39:58;;;;;;;;;1.33;1.33;;;;;27.06;39.35;99702.31;5026612;27;45581;-76
2023/03/31 06:42:23;;;;;;;;;8.00;2.67;;;;;27.07;39.10;99702.09;5045191;28;53098;-83
2023/03/31 06:44:48;;;;;;;;;3.00;1.33;;;;;27.08;38.67;99714.66;5018441;27;50497;-82
2023/03/31 06:47:14;;;;;;;;;2.33;1.00;;;;;27.09;38.55;99719.03;5032584;28;45899;-83
2023/03/31 06:49:39;;;;;;;;;1.33;1.33;;;;;27.10;38.46;99728.06;5032985;27;45299;-82
2023/03/31 06:52:05;;;;;;;;;3.00;3.00;;;;;27.08;38.10;99731.00;5032123;28;46830;-79
2023/03/31 06:54:30;;;;;;;;;4.00;2.00;;;;;27.14;38.10;99723.81;5026459;28;45679;-78
2023/03/31 06:56:55;;;;;;;;;1.00;1.00;;;;;27.15;38.65;99725.53;5030407;28;45448;-79
2023/03/31 06:59:21;;;;;;;;;2.00;1.00;;;;;27.16;38.00;99720.91;5024714;28;45616;-79
2023/03/31 07:01:47;;;;;;;;;2.00;1.00;;;;;27.20;37.91;99728.44;5031913;28;45343;-78
2023/03/31 07:04:12;;;;;;;;;3.33;2.00;;;;;27.21;38.28;99721.06;5020525;27;45631;-80
2023/03/31 07:06:38;;;;;;;;;5.00;2.00;;;;;27.28;38.22;99718.31;5025886;27;45549;-79
2023/03/31 07:09:03;;;;;;;;;5.00;2.33;;;;;27.29;37.61;99712.66;5023405;28;47686;-79
2023/03/31 07:11:29;;;;;;;;;4.00;2.00;;;;;27.31;37.53;99724.19;5023901;28;46909;-80
2023/03/31 07:13:54;;;;;;;;;2.00;1.33;;;;;27.33;37.33;99718.50;5032047;28;45444;-79
2023/03/31 07:16:20;;;;;;;;;3.00;1.00;;;;;27.33;37.31;99723.94;5032677;28;45437;-77
2023/03/31 07:18:45;;;;;;;;;1.33;1.33;;;;;27.32;37.55;99716.81;5032433;28;45354;-78
2023/03/31 07:21:10;;;;;;;;;1.00;1.00;;;;;27.35;37.11;99732.75;5030308;28;47663;-77
2023/03/31 07:23:36;;;;;;;;;2.00;1.00;;;;;27.36;36.89;99727.09;5030824;28;45492;-76
2023/03/31 07:26:01;;;;;;;;;1.00;1.00;;;;;27.37;36.87;99727.91;5031722;28;45430;-78
2023/03/31 07:28:28;;;;;;;;;0.67;0.00;;;;;27.40;37.07;99741.09;5034940;27;45461;-79
2023/03/31 07:30:53;;;;;;;;;2.00;2.00;;;;;27.41;36.54;99740.03;5030423;28;45420;-78
2023/03/31 07:33:19;;;;;;;;;2.00;1.67;;;;;27.39;36.38;99747.59;5031647;28;45345;-79
2023/03/31 07:35:44;;;;;;;;;5.00;2.00;;;;;27.39;36.57;99741.31;5043342;27;45532;-81
2023/03/31 07:38:11;;;;;;;;;3.00;3.00;;;;;27.40;36.93;99741.09;5032463;28;45547;-77
2023/03/31 07:40:38;;;;;;;;;5.00;4.00;;;;;27.37;36.79;99733.34;5030325;28;46179;-75
2023/03/31 07:43:03;;;;;;;;;3.00;2.00;;;;;27.35;36.56;99743.63;5027146;28;45704;-75
2023/03/31 07:45:29;;;;;;;;;2.00;1.00;;;;;27.34;36.64;99737.34;5031316;28;45561;-76
2023/03/31 07:47:55;;;;;;;;;4.33;1.33;;;;;27.35;36.67;99735.47;5028079;28;46259;-76
2023/03/31 07:50:22;;;;;;;;;1.67;1.67;;;;;27.38;35.99;99739.66;5029048;27;45913;-78
2023/03/31 07:52:48;;;;;;;;;3.00;1.00;;;;;27.39;36.44;99730.41;5030395;28;45484;-78
2023/03/31 07:55:14;;;;;;;;;3.00;2.00;;;;;27.40;36.31;99726.63;5030559;28;45507;-78
2023/03/31 07:57:40;;;;;;;;;5.00;2.00;;;;;27.38;36.24;99732.28;5030707;28;45358;-77
2023/03/31 08:00:11;;;;;;;;;3.00;1.33;;;;;27.38;36.38;99735.00;5031145;28;46195;-77
2023/03/31 08:02:38;;;;;;;;;4.00;1.00;;;;;27.38;36.14;99735.00;5020498;28;45524;-77
2023/03/31 08:05:06;;;;;;;;;2.00;1.00;;;;;27.35;36.12;99721.84;5000686;28;45385;-76
2023/03/31 08:07:34;;;;;;;;;3.33;0.67;;;;;27.36;35.72;99724.34;5017455;27;45534;-76
2023/03/31 08:09:59;;;;;;;;;2.00;0.67;;;;;27.36;35.37;99732.53;5015167;28;46121;-76
2023/03/31 08:12:25;;;;;;;;;1.67;1.67;;;;;27.37;36.13;99722.44;5025330;27;45476;-78
2023/03/31 08:14:50;;;;;;;;;2.00;2.00;;;;;27.42;35.39;99721.81;5029785;28;45562;-77
2023/03/31 08:17:16;;;;;;;;;0.67;0.67;;;;;27.46;35.86;99732.03;5031103;28;45518;-76
2023/03/31 08:19:41;;;;;;;;;2.33;2.00;;;;;27.51;35.91;99728.66;5012888;28;46208;-76
2023/03/31 08:22:06;;;;;;;;;1.33;1.33;;;;;27.53;35.20;99729.28;5025819;27;45747;-76
2023/03/31 08:24:31;;;;;;;;;3.33;1.00;;;;;27.54;35.71;99732.84;5030967;28;45672;-77
2023/03/31 08:26:57;;;;;;;;;1.67;1.67;;;;;27.51;35.04;99739.56;5034927;28;45554;-78
2023/03/31 08:29:22;;;;;;;;;3.33;3.00;;;;;27.52;34.92;99748.56;5012968;27;45442;-78
2023/03/31 08:31:48;;;;;;;;;2.33;2.33;;;;;27.50;35.57;99740.59;5033302;28;45377;-78
2023/03/31 08:34:13;;;;;;;;;1.00;1.00;;;;;27.54;35.08;99736.38;5034209;27;47294;-77
2023/03/31 08:36:38;;;;;;;;;3.67;3.33;;;;;27.54;35.51;99747.28;5083849;27;45895;-78
2023/03/31 08:39:04;;;;;;;;;5.33;2.67;;;;;27.51;34.77;99731.41;5011186;27;45930;-77
2023/03/31 08:41:44;;;;;;;;;1.67;1.00;;;;;27.56;34.80;99736.16;5031254;28;45513;-77
2023/03/31 08:44:16;;;;;;;;;3.00;1.67;;;;;27.60;35.45;99724.66;5024201;28;45466;-77
2023/03/31 08:46:42;;;;;;;;;2.67;2.67;;;;;27.65;35.24;99734.88;5024457;28;46307;-77
2023/03/31 08:49:15;;;;;;;;;2.00;1.00;;;;;27.74;34.91;99722.66;5004742;28;46076;-76
2023/03/31 08:51:47;;;;;;;;;4.00;1.33;;;;;27.82;34.94;99740.63;5011535;27;45469;-76
2023/03/31 08:54:31;;;;;;;;;4.00;3.00;;;;;27.88;34.65;99736.19;5016500;27;45549;-76
2023/03/31 08:56:57;;;;;;;;;3.33;2.00;;;;;27.94;34.68;99745.34;5023083;28;45600;-74
2023/03/31 08:59:30;;;;;;;;;3.67;1.67;;;;;27.97;34.42;99734.84;5025235;27;46480;-74
2023/03/31 09:02:27;;;;;;;;;2.33;1.00;;;;;28.03;35.21;99727.66;5023185;28;45389;-74
2023/03/31 09:05:25;;;;;;;;;5.00;3.33;;;;;28.10;35.22;99728.44;5024244;28;45507;-74
2023/03/31 09:07:54;;;;;;;;;3.00;1.33;;;;;28.16;34.59;99732.16;5032306;28;45434;-75
2023/03/31 09:10:38;;;;;;;;;3.33;2.33;;;;;28.21;35.12;99732.31;5030588;28;46082;-76
2023/03/31 09:13:03;;;;;;;;;3.00;2.00;;;;;28.23;34.57;99711.09;5034793;28;45389;-75
2023/03/31 09:15:42;;;;;;;;;1.67;1.67;;;;;28.26;34.60;99699.78;5026435;28;45296;-76
2023/03/31 09:18:42;;;;;;;;;1.00;1.00;;;;;28.32;35.08;99725.31;5031132;28;45362;-74
2023/03/31 09:21:16;;;;;;;;;4.00;1.00;;;;;28.37;35.24;99738.28;5019861;27;46981;-75
2023/03/31 09:24:00;;;;;;;;;4.00;2.00;;;;;28.40;35.05;99713.25;5018308;28;45461;-73
2023/03/31 09:26:34;;;;;;;;;2.33;1.33;;;;;28.42;35.02;99719.34;5018993;28;46487;-73
2023/03/31 09:29:06;;;;;;;;;2.00;2.00;;;;;28.45;34.16;99712.59;5028817;27;45591;-72
2023/03/31 09:31:32;;;;;;;;;1.00;1.00;;;;;28.49;34.20;99719.25;5012562;27;46234;-73
2023/03/31 09:34:00;;;;;;;;;1.33;0.00;;;;;28.51;34.83;99707.06;5011247;28;45531;-73
2023/03/31 09:36:26;;;;;;;;;2.00;2.00;;;;;28.54;34.62;99728.41;5030326;28;45336;-74
2023/03/31 09:38:51;;;;;;;;;1.00;1.00;;;;;28.59;34.70;99705.06;5022602;27;45737;-76
2023/03/31 09:41:20;;;;;;;;;2.00;1.00;;;;;28.60;34.30;99709.50;5016869;28;46121;-77
2023/03/31 09:43:48;;;;;;;;;2.00;2.00;;;;;28.58;34.07;99706.13;5037578;27;45454;-76
2023/03/31 09:46:29;;;;;;;;;4.00;2.67;;;;;28.53;33.75;99713.09;5027542;27;45581;-82
2023/03/31 09:49:05;;;;;;;;;4.33;3.00;;;;;28.48;33.74;99714.88;5021314;28;45464;-78
2023/03/31 09:51:33;;;;;;;;;3.67;2.00;;;;;28.45;34.41;99705.25;5029156;28;47092;-76
2023/03/31 09:54:04;;;;;;;;;3.33;2.00;;;;;28.40;34.28;99702.34;5029935;28;45370;-76
2023/03/31 09:56:42;;;;;;;;;4.33;1.33;;;;;28.36;33.98;99707.41;5029822;28;45792;-76
2023/03/31 09:59:17;;;;;;;;;1.67;1.00;;;;;28.31;34.13;99704.53;5030321;28;45347;-76
2023/03/31 10:01:45;;;;;;;;;3.00;1.00;;;;;28.28;34.17;99697.63;5029135;28;45990;-76
2023/03/31 10:04:20;;;;;;;;;1.00;1.00;;;;;28.31;33.94;99698.25;5030007;28;45366;-76
2023/03/31 10:06:46;;;;;;;;;0.00;0.00;;;;;28.28;33.41;99697.63;5023595;27;45280;-76
2023/03/31 10:09:11;;;;;;;;;1.00;1.00;;;;;28.26;34.09;99685.28;5031664;27;45362;-76
2023/03/31 10:11:38;;;;;;;;;2.00;1.00;;;;;28.24;34.05;99696.41;5025992;28;45565;-78
2023/03/31 10:14:13;;;;;;;;;1.67;1.00;;;;;28.22;33.98;99694.94;5028890;27;45773;-78
2023/03/31 10:16:46;;;;;;;;;2.00;1.00;;;;;28.20;33.77;99705.25;5029919;28;45339;-78
2023/03/31 10:19:17;;;;;;;;;2.00;1.00;;;;;28.19;33.22;99696.22;5030842;28;45762;-76
2023/03/31 10:21:45;;;;;;;;;1.00;1.00;;;;;28.19;33.16;99698.97;5032450;28;45916;-75
2023/03/31 10:24:16;;;;;;;;;1.33;1.33;;;;;28.19;33.83;99709.06;5032705;28;45463;-75
2023/03/31 10:26:42;;;;;;;;;1.67;1.67;;;;;28.15;33.46;99712.22;5033234;28;45435;-76
2023/03/31 10:29:12;;;;;;;;;2.33;1.00;;;;;28.14;33.82;99701.53;5032158;28;45459;-75
2023/03/31 10:31:38;;;;;;;;;1.00;1.00;;;;;28.14;33.65;99718.75;5031742;28;46024;-76
2023/03/31 10:34:08;;;;;;;;;1.00;1.00;;;;;28.15;33.52;99717.69;5009437;28;45434;-75
2023/03/31 10:36:34;;;;;;;;;0.33;0.33;;;;;28.15;33.68;99731.31;5025022;28;45432;-75
2023/03/31 10:39:05;;;;;;;;;1.00;1.00;;;;;28.12;33.74;99712.66;5017677;27;45517;-75
2023/03/31 10:41:31;;;;;;;;;1.00;1.00;;;;;28.12;32.96;99711.84;5019572;27;45467;-76
2023/03/31 10:43:59;;;;;;;;;2.00;1.00;;;;;28.08;33.37;99724.25;5032062;28;45479;-75
2023/03/31 10:46:48;;;;;;;;;0.00;0.00;;;;;28.09;33.16;99704.09;5031434;28;45579;-75
2023/03/31 10:49:20;;;;;;;;;1.00;1.00;;;;;28.10;33.29;99708.50;5004255;28;45524;-75
2023/03/31 10:51:53;;;;;;;;;2.00;1.67;;;;;28.09;33.29;99707.69;5032017;27;46229;-75
2023/03/31 10:54:19;;;;;;;;;2.67;2.00;;;;;28.11;33.15;99707.44;5032388;28;45694;-75
2023/03/31 10:56:47;;;;;;;;;1.00;1.00;;;;;28.08;32.74;99691.53;5032473;28;45461;-75
2023/03/31 10:59:21;;;;;;;;;1.33;1.00;;;;;28.08;32.76;99697.00;5032598;28;45582;-75
2023/03/31 11:02:21;;;;;;;;;1.00;1.00;;;;;28.09;33.53;99706.81;5031937;28;46000;-75
2023/03/31 11:05:09;;;;;;;;;3.00;1.00;;;;;28.11;33.38;99702.81;5031699;28;45465;-75
2023/03/31 11:07:38;;;;;;;;;1.67;1.00;;;;;28.12;33.00;99700.94;5032290;28;45592;-75
2023/03/31 11:10:31;;;;;;;;;0.00;0.00;;;;;28.10;32.76;99689.41;5020089;27;45526;-75
2023/03/31 11:12:59;;;;;;;;;0.33;0.33;;;;;28.07;33.23;99693.41;5029414;28;45388;-79
2023/03/31 11:15:35;;;;;;;;;1.00;1.00;;;;;28.05;33.44;99694.69;5032498;28;45427;-76
2023/03/31 11:18:03;;;;;;;;;1.00;1.00;;;;;28.05;32.85;99708.34;5023714;27;45462;-76
2023/03/31 11:20:49;;;;;;;;;0.67;0.67;;;;;28.07;32.69;99704.31;5019069;27;45618;-75
2023/03/31 11:23:27;;;;;;;;;4.00;3.00;;;;;28.08;32.93;99692.34;5012862;28;46368;-76
2023/03/31 11:26:05;;;;;;;;;2.00;2.00;;;;;28.10;32.80;99692.13;5002257;28;45561;-77
2023/03/31 11:29:06;;;;;;;;;7.67;4.33;;;;;28.10;32.92;99692.97;5019876;27;45701;-79
2023/03/31 11:32:08;;;;;;;;;2.67;2.33;;;;;28.09;32.58;99685.84;5061612;28;46393;-79
2023/03/31 11:34:55;;;;;;;;;0.67;0.00;;;;;28.11;32.66;99681.00;5045783;28;47537;-78
2023/03/31 11:37:55;;;;;;;;;3.33;1.00;;;;;28.17;33.04;99694.78;5071708;27;45395;-82
2023/03/31 11:40:33;;;;;;;;;1.67;1.67;;;;;28.19;32.90;99690.78;5068537;27;45530;-77
2023/03/31 11:43:06;;;;;;;;;2.67;1.00;;;;;28.25;32.88;99716.38;5072420;27;45604;-89
2023/03/31 11:45:34;;;;;;;;;4.50;1.50;;;;;28.27;32.80;99701.44;5068644;27;46025;-80
2023/03/31 11:48:05;;;;;;;;;6.67;1.00;;;;;28.30;33.13;99708.34;5064088;28;45576;-82
2023/03/31 11:50:37;;;;;;;;;1.00;1.00;;;;;28.37;33.01;99711.00;5066616;28;45654;-83
2023/03/31 11:53:11;;;;;;;;;1.67;1.33;;;;;28.40;32.86;99703.19;5072102;28;45586;-87
2023/03/31 11:55:38;;;;;;;;;3.00;1.67;;;;;28.46;32.84;99712.38;5068595;28;45683;-81
2023/03/31 11:58:14;;;;;;;;;1.00;1.00;;;;;28.49;32.82;99700.97;5067356;27;45509;-87
2023/03/31 12:01:06;;;;;;;;;2.00;2.00;;;;;28.50;32.73;99708.13;5061931;28;45465;-88
2023/03/31 12:03:46;;;;;;;;;1.00;1.00;;;;;28.49;32.73;99700.16;5072137;28;45660;-85
2023/03/31 12:06:18;;;;;;;;;6.00;2.33;;;;;28.47;32.88;99686.75;5057803;28;47026;-94
2023/03/31 12:09:00;;;;;;;;;2.33;1.00;;;;;28.48;32.14;99682.13;5057785;27;45413;-89
2023/03/31 12:11:56;;;;;;;;;1.33;0.00;;;;;28.49;32.79;99673.69;5030350;27;45486;-89
2023/03/31 12:14:40;;;;;;;;;1.33;1.33;;;;;28.52;32.15;99688.75;5033714;27;46454;-89
2023/03/31 12:17:15;;;;;;;;;7.00;3.00;;;;;28.52;32.91;99678.69;5030662;28;45481;-85
2023/03/31 12:20:09;;;;;;;;;2.67;1.00;;;;;28.51;32.65;99693.41;5027895;28;45478;-82
2023/03/31 12:22:40;;;;;;;;;2.67;1.00;;;;;28.50;32.65;99705.41;5017554;28;45358;-79
2023/03/31 12:25:11;;;;;;;;;1.33;1.00;;;;;28.49;32.60;99694.69;5027754;27;45413;-81
2023/03/31 12:27:42;;;;;;;;;0.00;0.00;;;;;28.46;32.14;99709.63;5018600;28;46242;-81
2023/03/31 12:30:41;;;;;;;;;0.00;0.00;;;;;28.44;32.75;99708.19;5030798;28;45850;-80
2023/03/31 12:33:23;;;;;;;;;0.00;0.00;;;;;28.36;32.65;99710.16;5030929;28;45474;-82
2023/03/31 12:36:10;;;;;;;;;0.67;0.00;;;;;28.32;32.59;99706.19;5017900;28;45525;-79
2023/03/31 12:38:53;;;;;;;;;1.00;1.00;;;;;28.29;32.39;99706.66;5030125;28;46145;-79
2023/03/31 12:41:30;;;;;;;;;0.00;0.00;;;;;28.31;31.99;99695.53;5022332;28;45454;-79
2023/03/31 12:44:00;;;;;;;;;0.00;0.00;;;;;28.30;32.65;99691.97;5031104;28;45458;-79
2023/03/31 12:46:59;;;;;;;;;2.67;0.00;;;;;28.33;32.70;99674.31;5012759;28;45536;-79
2023/03/31 12:49:49;;;;;;;;;0.00;0.00;;;;;28.36;32.62;99703.88;5012454;28;45999;-79
2023/03/31 12:52:20;;;;;;;;;0.00;0.00;;;;;28.35;32.31;99694.84;5018876;28;45471;-76
2023/03/31 12:54:58;;;;;;;;;3.00;2.00;;;;;28.38;32.75;99701.75;5030422;28;45647;-79
2023/03/31 12:57:25;;;;;;;;;2.67;2.00;;;;;28.40;32.71;99689.53;5021456;28;45533;-79
2023/03/31 13:00:22;;;;;;;;;0.00;0.00;;;;;28.42;32.65;99686.59;5036507;27;46038;-81
2023/03/31 13:02:49;;;;;;;;;0.00;0.00;;;;;28.41;32.63;99693.94;5028293;28;45420;-81
2023/03/31 13:05:36;;;;;;;;;2.00;2.00;;;;;28.39;32.66;99698.78;5023471;27;45486;-81
2023/03/31 13:08:22;;;;;;;;;2.67;0.00;;;;;28.39;31.79;99678.84;5021655;27;45722;-77
2023/03/31 13:10:58;;;;;;;;;4.00;2.33;;;;;28.39;32.50;99660.59;5022108;27;45452;-78
2023/03/31 13:13:25;;;;;;;;;7.00;3.00;;;;;28.40;32.30;99664.97;5026062;28;45398;-78
2023/03/31 13:15:54;;;;;;;;;2.00;0.33;;;;;28.44;32.82;99659.06;5025899;28;45498;-77
2023/03/31 13:18:21;;;;;;;;;0.00;0.00;;;;;28.50;32.37;99678.09;5029679;28;45460;-77
2023/03/31 13:20:57;;;;;;;;;2.00;0.33;;;;;28.57;32.61;99666.25;5029543;28;46276;-77
2023/03/31 13:23:24;;;;;;;;;1.67;0.00;;;;;28.63;32.67;99668.91;5014810;28;45426;-75
2023/03/31 13:25:57;;;;;;;;;1.00;1.00;;;;;28.69;32.55;99685.44;5031904;28;45428;-80
2023/03/31 13:28:22;;;;;;;;;2.00;1.00;;;;;28.71;31.94;99678.69;5022611;28;45461;-77
2023/03/31 13:30:52;;;;;;;;;3.00;1.00;;;;;28.72;32.01;99665.88;5009950;28;47261;-78
2023/03/31 13:33:21;;;;;;;;;2.00;0.33;;;;;28.75;32.06;99658.06;5021901;28;45729;-77
2023/03/31 13:35:52;;;;;;;;;1.00;1.00;;;;;28.79;32.68;99653.81;5015540;28;45783;-76
2023/03/31 13:38:43;;;;;;;;;0.00;0.00;;;;;28.87;32.76;99655.38;5025873;28;45658;-77
2023/03/31 13:41:27;;;;;;;;;1.00;0.00;;;;;28.94;32.63;99647.13;5009712;27;46248;-76
2023/03/31 13:44:04;;;;;;;;;2.33;1.00;;;;;29.01;32.56;99647.84;5027191;27;45412;-78
2023/03/31 13:46:49;;;;;;;;;1.33;0.67;;;;;29.08;32.13;99631.38;5029340;28;45443;-79
2023/03/31 13:49:30;;;;;;;;;0.67;0.67;;;;;29.11;32.24;99644.56;5036085;28;45430;-77
2023/03/31 13:52:02;;;;;;;;;3.67;2.00;;;;;29.11;31.92;99644.56;5020237;28;46130;-78
2023/03/31 13:55:05;;;;;;;;;2.67;2.00;;;;;29.11;32.20;99658.22;5057593;27;45575;-84
2023/03/31 13:57:49;;;;;;;;;1.00;1.00;;;;;29.09;32.36;99670.47;5029689;27;45488;-71
2023/03/31 14:00:33;;;;;;;;;1.67;0.33;;;;;29.04;32.42;99680.19;5037279;28;45541;-73
2023/03/31 14:03:23;;;;;;;;;1.00;0.00;;;;;29.04;31.87;99685.63;5034930;28;47892;-72
2023/03/31 14:06:03;;;;;;;;;2.00;0.00;;;;;28.94;32.12;99666.25;5026519;28;45549;-72
2023/03/31 14:08:53;;;;;;;;;2.00;1.00;;;;;29.05;32.56;99665.44;5005230;28;45818;-73
2023/03/31 14:11:27;;;;;;;;;0.00;0.00;;;;;29.08;31.93;99677.81;5019942;28;45568;-72
2023/03/31 14:14:10;;;;;;;;;2.67;1.00;;;;;29.09;32.35;99675.91;5031300;28;46211;-72
2023/03/31 14:16:39;;;;;;;;;1.00;1.00;;;;;29.13;32.59;99679.81;5023153;28;45536;-72
2023/03/31 14:19:10;;;;;;;;;2.00;0.67;;;;;29.17;32.36;99670.94;5090930;27;45424;-72
2023/03/31 14:21:53;;;;;;;;;0.00;0.00;;;;;29.17;32.32;99690.06;5022666;28;45559;-73
2023/03/31 14:24:25;;;;;;;;;1.00;1.00;;;;;29.18;31.88;99691.72;5031765;28;45704;-73
2023/03/31 14:27:05;;;;;;;;;0.00;0.00;;;;;29.19;32.22;99690.66;5034237;28;45469;-72
2023/03/31 14:29:56;;;;;;;;;0.67;0.67;;;;;29.19;32.24;99692.59;5016319;27;45483;-72
2023/03/31 14:33:06;;;;;;;;;2.33;1.00;;;;;29.20;32.16;99683.31;5023679;27;45655;-72
2023/03/31 14:35:41;;;;;;;;;3.00;0.33;;;;;29.22;32.87;99688.56;5017119;27;46256;-71
2023/03/31 14:38:15;;;;;;;;;0.33;0.33;;;;;29.21;32.20;99674.03;5014730;28;45735;-72
2023/03/31 14:40:47;;;;;;;;;0.00;0.00;;;;;29.30;32.78;99683.56;5027577;28;45598;-74
2023/03/31 14:43:28;;;;;;;;;0.00;0.00;;;;;29.33;32.24;99671.34;5031929;28;45518;-71
2023/03/31 14:46:02;;;;;;;;;2.00;1.00;;;;;29.28;31.67;99683.00;5021821;28;46481;-71
2023/03/31 14:48:30;;;;;;;;;1.00;1.00;;;;;29.27;32.12;99659.47;5031058;28;45462;-73
2023/03/31 14:50:59;;;;;;;;;0.00;0.00;;;;;29.29;32.42;99659.22;5031886;27;45475;-71
2023/03/31 14:53:25;;;;;;;;;1.00;0.00;;;;;29.31;31.73;99657.09;5040580;27;45739;-71
2023/03/31 14:56:03;;;;;;;;;2.00;0.00;;;;;29.35;32.32;99660.19;5004785;28;46128;-71
2023/03/31 14:58:33;;;;;;;;;3.00;0.00;;;;;29.38;32.15;99667.94;5015348;28;45446;-70
2023/03/31 15:01:01;;;;;;;;;0.67;0.33;;;;;29.41;31.93;99659.22;5026983;27;45573;-71
2023/03/31 15:03:27;;;;;;;;;1.00;0.00;;;;;29.42;31.85;99658.19;5013597;28;45702;-71
2023/03/31 15:06:02;;;;;;;;;0.00;0.00;;;;;29.41;31.95;99661.97;5002095;27;46431;-72
2023/03/31 15:08:29;;;;;;;;;0.67;0.00;;;;;29.45;31.79;99687.78;5025361;28;45951;-72
2023/03/31 15:10:58;;;;;;;;;1.00;1.00;;;;;29.46;31.88;99695.75;5026993;28;45409;-72
2023/03/31 15:13:41;;;;;;;;;0.00;0.00;;;;;29.46;31.93;99700.38;5022811;28;45673;-75
2023/03/31 15:16:28;;;;;;;;;1.00;1.00;;;;;29.42;31.91;99716.41;5047826;27;45404;-75
2023/03/31 15:18:54;;;;;;;;;2.67;1.67;;;;;29.36;31.87;99725.53;5033651;28;45492;-73
2023/03/31 15:21:22;;;;;;;;;5.00;5.00;;;;;29.30;31.94;99731.94;5032241;28;45557;-75
2023/03/31 15:23:51;;;;;;;;;1.00;1.00;;;;;29.28;31.39;99728.59;5028874;28;45379;-74
2023/03/31 15:26:22;;;;;;;;;3.00;1.00;;;;;29.30;31.53;99738.22;5013863;28;48313;-74
2023/03/31 15:28:55;;;;;;;;;2.00;1.00;;;;;29.35;31.83;99731.22;5031191;28;45469;-73
2023/03/31 15:31:21;;;;;;;;;1.00;1.00;;;;;29.38;32.23;99744.44;5026341;27;45595;-73
2023/03/31 15:33:47;;;;;;;;;2.00;1.00;;;;;29.44;31.58;99740.78;5034269;27;45505;-74
2023/03/31 15:36:13;;;;;;;;;0.67;0.67;;;;;29.48;31.80;99755.66;5016530;28;46043;-74
2023/03/31 15:38:39;;;;;;;;;1.67;0.67;;;;;29.53;32.11;99746.75;5030045;28;45472;-74
2023/03/31 15:41:16;;;;;;;;;1.67;1.00;;;;;29.60;31.41;99750.25;5029530;28;45374;-73
2023/03/31 15:43:44;;;;;;;;;1.00;1.00;;;;;29.64;31.75;99748.72;5028336;28;45592;-74
2023/03/31 15:46:16;;;;;;;;;1.00;1.00;;;;;29.68;31.92;99758.09;5031092;27;46168;-75
2023/03/31 15:48:51;;;;;;;;;1.00;1.00;;;;;29.70;31.49;99772.38;5018337;28;45324;-74
2023/03/31 15:51:23;;;;;;;;;0.33;0.33;;;;;29.71;32.01;99782.25;5024849;27;45421;-73
2023/03/31 15:53:52;;;;;;;;;0.67;0.67;;;;;29.70;31.91;99772.38;5021253;27;45605;-73
